sensor_id;sensor_type;location;lat;lon;timestamp;temperature;humidity
37412;DHT22;23278;52.110;6.050;2022-10-31T00:00:45;13.70;99.90
37412;DHT22;23278;52.110;6.050;2022-10-31T00:03:11;13.70;99.90
37412;DHT22;23278;52.110;6.050;2022-10-31T00:05:41;13.70;99.90
37412;DHT22;23278;52.110;6.050;2022-10-31T00:08:08;13.60;99.90
37412;DHT22;23278;52.110;6.050;2022-10-31T00:10:33;13.60;99.90
37412;DHT22;23278;52.110;6.050;2022-10-31T00:13:02;13.60;99.90
37412;DHT22;23278;52.110;6.050;2022-10-31T00:15:28;13.60;99.90
37412;DHT22;23278;52.110;6.050;2022-10-31T00:17:54;13.60;99.90
37412;DHT22;23278;52.110;6.050;2022-10-31T00:20:19;13.60;99.90
37412;DHT22;23278;52.110;6.050;2022-10-31T00:22:46;13.50;99.90
37412;DHT22;23278;52.110;6.050;2022-10-31T00:25:12;13.50;99.90
37412;DHT22;23278;52.110;6.050;2022-10-31T00:27:38;13.50;99.90
37412;DHT22;23278;52.110;6.050;2022-10-31T00:30:04;13.50;99.90
37412;DHT22;23278;52.110;6.050;2022-10-31T00:32:30;13.50;99.90
37412;DHT22;23278;52.110;6.050;2022-10-31T00:34:56;13.50;99.90
37412;DHT22;23278;52.110;6.050;2022-10-31T00:37:22;13.50;99.90
37412;DHT22;23278;52.110;6.050;2022-10-31T00:39:48;13.50;99.90
37412;DHT22;23278;52.110;6.050;2022-10-31T00:42:15;13.50;99.90
37412;DHT22;23278;52.110;6.050;2022-10-31T00:44:43;13.50;99.90
37412;DHT22;23278;52.110;6.050;2022-10-31T00:47:08;13.50;99.90
37412;DHT22;23278;52.110;6.050;2022-10-31T00:49:34;13.50;99.90
37412;DHT22;23278;52.110;6.050;2022-10-31T00:52:00;13.50;99.90
37412;DHT22;23278;52.110;6.050;2022-10-31T00:54:26;13.50;99.90
37412;DHT22;23278;52.110;6.050;2022-10-31T00:56:52;13.40;99.90
37412;DHT22;23278;52.110;6.050;2022-10-31T00:59:18;13.40;99.90
37412;DHT22;23278;52.110;6.050;2022-10-31T01:01:44;13.40;99.90
37412;DHT22;23278;52.110;6.050;2022-10-31T01:04:10;13.40;99.90
37412;DHT22;23278;52.110;6.050;2022-10-31T01:06:35;13.40;99.90
37412;DHT22;23278;52.110;6.050;2022-10-31T01:09:01;13.40;99.90
37412;DHT22;23278;52.110;6.050;2022-10-31T01:11:27;13.40;99.90
37412;DHT22;23278;52.110;6.050;2022-10-31T01:13:54;13.40;99.90
37412;DHT22;23278;52.110;6.050;2022-10-31T01:16:22;13.30;99.90
37412;DHT22;23278;52.110;6.050;2022-10-31T01:18:50;13.30;99.90
37412;DHT22;23278;52.110;6.050;2022-10-31T01:21:18;13.30;99.90
37412;DHT22;23278;52.110;6.050;2022-10-31T01:23:48;13.30;99.90
37412;DHT22;23278;52.110;6.050;2022-10-31T01:26:16;13.30;99.90
37412;DHT22;23278;52.110;6.050;2022-10-31T01:28:46;13.30;99.90
37412;DHT22;23278;52.110;6.050;2022-10-31T01:31:12;13.30;99.90
37412;DHT22;23278;52.110;6.050;2022-10-31T01:33:38;13.30;99.90
37412;DHT22;23278;52.110;6.050;2022-10-31T01:36:23;13.30;99.90
37412;DHT22;23278;52.110;6.050;2022-10-31T01:38:51;13.30;99.90
37412;DHT22;23278;52.110;6.050;2022-10-31T01:41:20;13.30;99.90
37412;DHT22;23278;52.110;6.050;2022-10-31T01:43:52;13.30;99.90
37412;DHT22;23278;52.110;6.050;2022-10-31T01:46:30;13.20;99.90
37412;DHT22;23278;52.110;6.050;2022-10-31T01:49:00;13.20;99.90
37412;DHT22;23278;52.110;6.050;2022-10-31T01:51:30;13.20;99.90
37412;DHT22;23278;52.110;6.050;2022-10-31T01:54:00;13.20;99.90
37412;DHT22;23278;52.110;6.050;2022-10-31T01:56:27;13.10;99.90
37412;DHT22;23278;52.110;6.050;2022-10-31T01:58:54;13.00;99.90
37412;DHT22;23278;52.110;6.050;2022-10-31T02:01:22;13.00;99.90
37412;DHT22;23278;52.110;6.050;2022-10-31T02:03:48;12.90;99.90
37412;DHT22;23278;52.110;6.050;2022-10-31T02:06:30;12.90;99.90
37412;DHT22;23278;52.110;6.050;2022-10-31T02:08:59;12.90;99.90
37412;DHT22;23278;52.110;6.050;2022-10-31T02:11:27;12.90;99.90
37412;DHT22;23278;52.110;6.050;2022-10-31T02:13:54;12.90;99.90
37412;DHT22;23278;52.110;6.050;2022-10-31T02:16:22;12.90;99.90
37412;DHT22;23278;52.110;6.050;2022-10-31T02:18:47;12.90;99.90
37412;DHT22;23278;52.110;6.050;2022-10-31T02:21:18;12.90;99.90
37412;DHT22;23278;52.110;6.050;2022-10-31T02:24:16;12.90;99.90
37412;DHT22;23278;52.110;6.050;2022-10-31T02:32:43;12.80;99.90
37412;DHT22;23278;52.110;6.050;2022-10-31T02:37:57;12.70;99.90
37412;DHT22;23278;52.110;6.050;2022-10-31T02:46:35;12.60;99.90
37412;DHT22;23278;52.110;6.050;2022-10-31T02:49:15;12.60;99.90
37412;DHT22;23278;52.110;6.050;2022-10-31T02:51:43;12.50;99.90
37412;DHT22;23278;52.110;6.050;2022-10-31T02:54:22;12.50;99.90
37412;DHT22;23278;52.110;6.050;2022-10-31T02:57:03;12.40;99.90
37412;DHT22;23278;52.110;6.050;2022-10-31T02:59:31;12.40;99.90
37412;DHT22;23278;52.110;6.050;2022-10-31T03:02:27;12.30;99.90
37412;DHT22;23278;52.110;6.050;2022-10-31T03:05:27;12.20;99.90
37412;DHT22;23278;52.110;6.050;2022-10-31T03:10:41;12.10;99.90
37412;DHT22;23278;52.110;6.050;2022-10-31T03:15:53;11.90;99.90
37412;DHT22;23278;52.110;6.050;2022-10-31T03:18:25;11.90;99.90
37412;DHT22;23278;52.110;6.050;2022-10-31T03:23:30;11.80;99.90
37412;DHT22;23278;52.110;6.050;2022-10-31T03:26:00;11.80;99.90
37412;DHT22;23278;52.110;6.050;2022-10-31T03:28:53;11.80;99.90
37412;DHT22;23278;52.110;6.050;2022-10-31T03:31:26;11.70;99.90
37412;DHT22;23278;52.110;6.050;2022-10-31T03:33:56;11.70;99.90
37412;DHT22;23278;52.110;6.050;2022-10-31T03:36:26;11.60;99.90
37412;DHT22;23278;52.110;6.050;2022-10-31T03:38:53;11.60;99.90
37412;DHT22;23278;52.110;6.050;2022-10-31T03:41:22;11.50;99.90
37412;DHT22;23278;52.110;6.050;2022-10-31T03:43:55;11.50;99.90
37412;DHT22;23278;52.110;6.050;2022-10-31T03:46:24;11.40;99.90
37412;DHT22;23278;52.110;6.050;2022-10-31T03:48:51;11.40;99.90
37412;DHT22;23278;52.110;6.050;2022-10-31T03:51:45;11.30;99.90
37412;DHT22;23278;52.110;6.050;2022-10-31T03:56:53;11.20;99.90
37412;DHT22;23278;52.110;6.050;2022-10-31T03:59:34;11.20;99.90
37412;DHT22;23278;52.110;6.050;2022-10-31T04:02:06;11.10;99.90
37412;DHT22;23278;52.110;6.050;2022-10-31T04:04:34;11.10;99.90
37412;DHT22;23278;52.110;6.050;2022-10-31T04:07:01;11.10;99.90
37412;DHT22;23278;52.110;6.050;2022-10-31T04:09:30;11.00;99.90
37412;DHT22;23278;52.110;6.050;2022-10-31T04:11:58;11.00;99.90
37412;DHT22;23278;52.110;6.050;2022-10-31T04:14:36;11.00;99.90
37412;DHT22;23278;52.110;6.050;2022-10-31T04:17:07;10.90;99.90
37412;DHT22;23278;52.110;6.050;2022-10-31T04:19:37;10.90;99.90
37412;DHT22;23278;52.110;6.050;2022-10-31T04:22:03;10.90;99.90
37412;DHT22;23278;52.110;6.050;2022-10-31T04:24:30;10.80;99.90
37412;DHT22;23278;52.110;6.050;2022-10-31T04:26:57;10.80;99.90
37412;DHT22;23278;52.110;6.050;2022-10-31T04:29:23;10.80;99.90
37412;DHT22;23278;52.110;6.050;2022-10-31T04:31:50;10.80;99.90
37412;DHT22;23278;52.110;6.050;2022-10-31T04:34:16;10.70;99.90
37412;DHT22;23278;52.110;6.050;2022-10-31T04:36:42;10.70;99.90
37412;DHT22;23278;52.110;6.050;2022-10-31T04:39:08;10.70;99.90
37412;DHT22;23278;52.110;6.050;2022-10-31T04:41:43;10.60;99.90
37412;DHT22;23278;52.110;6.050;2022-10-31T04:44:17;10.60;99.90
37412;DHT22;23278;52.110;6.050;2022-10-31T04:46:47;10.60;99.90
37412;DHT22;23278;52.110;6.050;2022-10-31T04:49:13;10.60;99.90
37412;DHT22;23278;52.110;6.050;2022-10-31T04:51:39;10.60;99.90
37412;DHT22;23278;52.110;6.050;2022-10-31T04:54:05;10.60;99.90
37412;DHT22;23278;52.110;6.050;2022-10-31T04:56:31;10.60;99.90
37412;DHT22;23278;52.110;6.050;2022-10-31T04:59:04;10.60;99.90
37412;DHT22;23278;52.110;6.050;2022-10-31T05:01:43;10.60;99.90
37412;DHT22;23278;52.110;6.050;2022-10-31T05:04:10;10.60;99.90
37412;DHT22;23278;52.110;6.050;2022-10-31T05:06:35;10.70;99.90
37412;DHT22;23278;52.110;6.050;2022-10-31T05:09:02;10.70;99.90
37412;DHT22;23278;52.110;6.050;2022-10-31T05:11:28;10.70;99.90
37412;DHT22;23278;52.110;6.050;2022-10-31T05:13:58;10.60;99.90
37412;DHT22;23278;52.110;6.050;2022-10-31T05:16:43;10.50;99.90
37412;DHT22;23278;52.110;6.050;2022-10-31T05:19:29;10.50;99.90
37412;DHT22;23278;52.110;6.050;2022-10-31T05:22:15;10.40;99.90
37412;DHT22;23278;52.110;6.050;2022-10-31T05:24:41;10.30;99.90
37412;DHT22;23278;52.110;6.050;2022-10-31T05:27:08;10.30;99.90
37412;DHT22;23278;52.110;6.050;2022-10-31T05:36:52;10.20;99.90
37412;DHT22;23278;52.110;6.050;2022-10-31T05:39:21;10.20;99.90
37412;DHT22;23278;52.110;6.050;2022-10-31T05:41:50;10.30;99.90
37412;DHT22;23278;52.110;6.050;2022-10-31T05:44:21;10.40;99.90
37412;DHT22;23278;52.110;6.050;2022-10-31T05:47:01;10.40;99.90
37412;DHT22;23278;52.110;6.050;2022-10-31T05:49:59;10.50;99.90
37412;DHT22;23278;52.110;6.050;2022-10-31T05:52:45;10.60;99.90
37412;DHT22;23278;52.110;6.050;2022-10-31T05:55:34;10.70;99.90
37412;DHT22;23278;52.110;6.050;2022-10-31T05:58:20;10.70;99.90
37412;DHT22;23278;52.110;6.050;2022-10-31T06:00:57;10.80;99.90
37412;DHT22;23278;52.110;6.050;2022-10-31T06:03:23;10.90;99.90
37412;DHT22;23278;52.110;6.050;2022-10-31T06:05:59;10.90;99.90
37412;DHT22;23278;52.110;6.050;2022-10-31T06:08:30;11.00;99.90
37412;DHT22;23278;52.110;6.050;2022-10-31T06:10:59;11.00;99.90
37412;DHT22;23278;52.110;6.050;2022-10-31T06:13:45;11.00;99.90
37412;DHT22;23278;52.110;6.050;2022-10-31T06:16:24;11.00;99.90
37412;DHT22;23278;52.110;6.050;2022-10-31T06:18:51;11.10;99.90
37412;DHT22;23278;52.110;6.050;2022-10-31T06:21:17;11.10;99.90
37412;DHT22;23278;52.110;6.050;2022-10-31T06:23:43;11.10;99.90
37412;DHT22;23278;52.110;6.050;2022-10-31T06:26:24;11.00;99.90
37412;DHT22;23278;52.110;6.050;2022-10-31T06:28:52;11.00;99.90
37412;DHT22;23278;52.110;6.050;2022-10-31T06:31:34;10.90;99.90
37412;DHT22;23278;52.110;6.050;2022-10-31T06:34:00;10.80;99.90
37412;DHT22;23278;52.110;6.050;2022-10-31T06:36:26;10.70;99.90
37412;DHT22;23278;52.110;6.050;2022-10-31T06:38:53;10.60;99.90
37412;DHT22;23278;52.110;6.050;2022-10-31T06:41:22;10.60;99.90
37412;DHT22;23278;52.110;6.050;2022-10-31T06:43:48;10.50;99.90
37412;DHT22;23278;52.110;6.050;2022-10-31T06:46:37;10.50;99.90
37412;DHT22;23278;52.110;6.050;2022-10-31T06:49:26;10.50;99.90
37412;DHT22;23278;52.110;6.050;2022-10-31T06:51:54;10.40;99.90
37412;DHT22;23278;52.110;6.050;2022-10-31T06:54:20;10.40;99.90
37412;DHT22;23278;52.110;6.050;2022-10-31T06:56:47;10.40;99.90
37412;DHT22;23278;52.110;6.050;2022-10-31T06:59:14;10.40;99.90
37412;DHT22;23278;52.110;6.050;2022-10-31T07:01:59;10.50;99.90
37412;DHT22;23278;52.110;6.050;2022-10-31T07:04:26;10.40;99.90
37412;DHT22;23278;52.110;6.050;2022-10-31T07:06:52;10.40;99.90
37412;DHT22;23278;52.110;6.050;2022-10-31T07:09:19;10.40;99.90
37412;DHT22;23278;52.110;6.050;2022-10-31T07:11:46;10.50;99.90
37412;DHT22;23278;52.110;6.050;2022-10-31T07:14:12;10.50;99.90
37412;DHT22;23278;52.110;6.050;2022-10-31T07:16:38;10.60;99.90
37412;DHT22;23278;52.110;6.050;2022-10-31T07:19:05;10.60;99.90
37412;DHT22;23278;52.110;6.050;2022-10-31T07:21:31;10.60;99.90
37412;DHT22;23278;52.110;6.050;2022-10-31T07:23:57;10.70;99.90
37412;DHT22;23278;52.110;6.050;2022-10-31T07:26:41;10.70;99.90
37412;DHT22;23278;52.110;6.050;2022-10-31T07:29:08;10.80;99.90
37412;DHT22;23278;52.110;6.050;2022-10-31T07:31:34;10.90;99.90
37412;DHT22;23278;52.110;6.050;2022-10-31T07:34:08;11.00;99.90
37412;DHT22;23278;52.110;6.050;2022-10-31T07:36:34;11.10;99.90
37412;DHT22;23278;52.110;6.050;2022-10-31T07:39:03;11.20;99.90
37412;DHT22;23278;52.110;6.050;2022-10-31T07:41:31;11.40;99.90
37412;DHT22;23278;52.110;6.050;2022-10-31T07:43:57;11.50;99.90
37412;DHT22;23278;52.110;6.050;2022-10-31T07:46:45;11.60;99.90
37412;DHT22;23278;52.110;6.050;2022-10-31T07:49:34;11.80;99.90
37412;DHT22;23278;52.110;6.050;2022-10-31T07:52:19;11.90;99.90
37412;DHT22;23278;52.110;6.050;2022-10-31T07:55:05;12.00;99.90
37412;DHT22;23278;52.110;6.050;2022-10-31T07:57:31;12.00;99.90
37412;DHT22;23278;52.110;6.050;2022-10-31T07:59:57;12.20;99.90
37412;DHT22;23278;52.110;6.050;2022-10-31T08:02:23;12.40;99.90
37412;DHT22;23278;52.110;6.050;2022-10-31T08:05:09;12.70;99.90
37412;DHT22;23278;52.110;6.050;2022-10-31T08:08:14;13.00;99.90
37412;DHT22;23278;52.110;6.050;2022-10-31T08:10:41;13.40;99.90
37412;DHT22;23278;52.110;6.050;2022-10-31T08:13:09;13.60;99.90
37412;DHT22;23278;52.110;6.050;2022-10-31T08:15:38;13.80;99.90
37412;DHT22;23278;52.110;6.050;2022-10-31T08:18:12;14.00;99.90
37412;DHT22;23278;52.110;6.050;2022-10-31T08:20:39;14.30;99.90
37412;DHT22;23278;52.110;6.050;2022-10-31T08:23:05;14.50;99.90
37412;DHT22;23278;52.110;6.050;2022-10-31T08:25:34;14.80;99.90
37412;DHT22;23278;52.110;6.050;2022-10-31T08:28:01;15.10;99.90
37412;DHT22;23278;52.110;6.050;2022-10-31T08:30:31;15.40;99.90
37412;DHT22;23278;52.110;6.050;2022-10-31T08:33:24;15.70;99.90
37412;DHT22;23278;52.110;6.050;2022-10-31T08:36:20;16.10;99.90
37412;DHT22;23278;52.110;6.050;2022-10-31T08:38:56;16.50;99.90
37412;DHT22;23278;52.110;6.050;2022-10-31T08:41:22;16.70;99.90
37412;DHT22;23278;52.110;6.050;2022-10-31T08:43:48;16.80;99.90
37412;DHT22;23278;52.110;6.050;2022-10-31T08:46:15;16.90;99.90
37412;DHT22;23278;52.110;6.050;2022-10-31T08:48:42;17.20;99.90
37412;DHT22;23278;52.110;6.050;2022-10-31T08:51:09;17.70;99.90
37412;DHT22;23278;52.110;6.050;2022-10-31T08:53:36;18.10;99.50
37412;DHT22;23278;52.110;6.050;2022-10-31T08:56:20;18.30;98.90
37412;DHT22;23278;52.110;6.050;2022-10-31T08:58:48;18.50;98.80
37412;DHT22;23278;52.110;6.050;2022-10-31T09:01:14;18.60;98.60
37412;DHT22;23278;52.110;6.050;2022-10-31T09:03:42;18.90;98.40
37412;DHT22;23278;52.110;6.050;2022-10-31T09:06:10;19.20;97.90
37412;DHT22;23278;52.110;6.050;2022-10-31T09:08:36;19.40;97.70
37412;DHT22;23278;52.110;6.050;2022-10-31T09:11:03;19.60;97.30
37412;DHT22;23278;52.110;6.050;2022-10-31T09:13:47;20.00;96.90
37412;DHT22;23278;52.110;6.050;2022-10-31T09:16:45;20.40;96.40
37412;DHT22;23278;52.110;6.050;2022-10-31T09:19:18;20.80;95.70
37412;DHT22;23278;52.110;6.050;2022-10-31T09:21:45;21.30;95.10
37412;DHT22;23278;52.110;6.050;2022-10-31T09:24:11;21.40;94.50
37412;DHT22;23278;52.110;6.050;2022-10-31T09:26:37;21.30;94.40
37412;DHT22;23278;52.110;6.050;2022-10-31T09:29:14;21.40;94.20
37412;DHT22;23278;52.110;6.050;2022-10-31T09:31:42;21.50;93.80
37412;DHT22;23278;52.110;6.050;2022-10-31T09:34:28;21.80;93.40
37412;DHT22;23278;52.110;6.050;2022-10-31T09:37:05;22.10;92.80
37412;DHT22;23278;52.110;6.050;2022-10-31T09:39:34;22.20;91.90
37412;DHT22;23278;52.110;6.050;2022-10-31T09:42:55;22.40;91.50
37412;DHT22;23278;52.110;6.050;2022-10-31T09:51:29;21.40;90.90
37412;DHT22;23278;52.110;6.050;2022-10-31T09:54:32;21.10;91.30
37412;DHT22;23278;52.110;6.050;2022-10-31T09:57:00;21.00;91.40
37412;DHT22;23278;52.110;6.050;2022-10-31T09:59:28;20.80;91.50
37412;DHT22;23278;52.110;6.050;2022-10-31T10:05:02;20.50;91.90
37412;DHT22;23278;52.110;6.050;2022-10-31T10:14:16;20.80;91.80
37412;DHT22;23278;52.110;6.050;2022-10-31T10:22:56;20.20;92.20
37412;DHT22;23278;52.110;6.050;2022-10-31T10:25:34;20.10;92.30
37412;DHT22;23278;52.110;6.050;2022-10-31T10:28:29;19.90;92.50
37412;DHT22;23278;52.110;6.050;2022-10-31T10:31:16;19.80;92.70
37412;DHT22;23278;52.110;6.050;2022-10-31T10:39:25;19.90;92.70
37412;DHT22;23278;52.110;6.050;2022-10-31T10:41:53;19.80;93.00
37412;DHT22;23278;52.110;6.050;2022-10-31T10:44:46;19.60;93.20
37412;DHT22;23278;52.110;6.050;2022-10-31T10:47:34;19.40;93.40
37412;DHT22;23278;52.110;6.050;2022-10-31T10:50:22;19.40;93.70
37412;DHT22;23278;52.110;6.050;2022-10-31T10:55:36;19.40;93.70
37412;DHT22;23278;52.110;6.050;2022-10-31T10:58:08;19.40;93.70
37412;DHT22;23278;52.110;6.050;2022-10-31T11:00:43;19.40;93.70
37412;DHT22;23278;52.110;6.050;2022-10-31T11:03:13;19.40;93.70
37412;DHT22;23278;52.110;6.050;2022-10-31T11:11:29;19.70;93.50
37412;DHT22;23278;52.110;6.050;2022-10-31T11:14:12;20.10;93.00
37412;DHT22;23278;52.110;6.050;2022-10-31T11:16:42;20.50;92.50
37412;DHT22;23278;52.110;6.050;2022-10-31T11:19:25;20.90;91.80
37412;DHT22;23278;52.110;6.050;2022-10-31T11:21:52;21.10;91.60
37412;DHT22;23278;52.110;6.050;2022-10-31T11:24:21;21.50;91.30
37412;DHT22;23278;52.110;6.050;2022-10-31T11:26:48;21.90;90.70
37412;DHT22;23278;52.110;6.050;2022-10-31T11:29:24;22.50;89.70
37412;DHT22;23278;52.110;6.050;2022-10-31T11:31:53;23.10;88.00
37412;DHT22;23278;52.110;6.050;2022-10-31T11:34:42;23.40;85.60
37412;DHT22;23278;52.110;6.050;2022-10-31T11:37:18;23.20;85.20
37412;DHT22;23278;52.110;6.050;2022-10-31T11:40:34;23.00;85.50
37412;DHT22;23278;52.110;6.050;2022-10-31T11:42:38;23.40;84.10
37412;DHT22;23278;52.110;6.050;2022-10-31T11:45:28;24.00;82.10
37412;DHT22;23278;52.110;6.050;2022-10-31T11:47:56;24.00;81.00
37412;DHT22;23278;52.110;6.050;2022-10-31T11:50:26;23.60;81.20
37412;DHT22;23278;52.110;6.050;2022-10-31T11:52:53;23.00;81.90
37412;DHT22;23278;52.110;6.050;2022-10-31T11:55:32;22.60;83.30
37412;DHT22;23278;52.110;6.050;2022-10-31T11:57:59;22.40;83.60
37412;DHT22;23278;52.110;6.050;2022-10-31T12:00:32;22.20;83.90
37412;DHT22;23278;52.110;6.050;2022-10-31T12:05:39;22.20;84.20
37412;DHT22;23278;52.110;6.050;2022-10-31T12:08:11;22.60;83.60
37412;DHT22;23278;52.110;6.050;2022-10-31T12:10:41;22.70;83.20
37412;DHT22;23278;52.110;6.050;2022-10-31T12:15:58;22.60;83.10
37412;DHT22;23278;52.110;6.050;2022-10-31T12:23:55;22.50;83.20
37412;DHT22;23278;52.110;6.050;2022-10-31T12:26:52;22.30;83.40
37412;DHT22;23278;52.110;6.050;2022-10-31T12:29:34;22.20;83.70
37412;DHT22;23278;52.110;6.050;2022-10-31T12:40:06;23.40;81.00
37412;DHT22;23278;52.110;6.050;2022-10-31T12:45:33;23.30;78.80
37412;DHT22;23278;52.110;6.050;2022-10-31T12:56:41;22.10;81.20
37412;DHT22;23278;52.110;6.050;2022-10-31T12:59:32;21.80;81.80
37412;DHT22;23278;52.110;6.050;2022-10-31T13:02:20;21.80;82.10
37412;DHT22;23278;52.110;6.050;2022-10-31T13:07:49;21.50;82.90
37412;DHT22;23278;52.110;6.050;2022-10-31T13:11:39;21.40;83.20
37412;DHT22;23278;52.110;6.050;2022-10-31T13:13:59;21.30;83.50
37412;DHT22;23278;52.110;6.050;2022-10-31T13:16:54;21.30;83.80
37412;DHT22;23278;52.110;6.050;2022-10-31T13:19:27;21.40;83.80
37412;DHT22;23278;52.110;6.050;2022-10-31T13:24:59;21.50;83.70
37412;DHT22;23278;52.110;6.050;2022-10-31T13:27:45;21.70;83.60
37412;DHT22;23278;52.110;6.050;2022-10-31T13:30:19;21.90;83.20
37412;DHT22;23278;52.110;6.050;2022-10-31T13:32:56;22.70;82.00
37412;DHT22;23278;52.110;6.050;2022-10-31T13:38:40;23.20;79.30
37412;DHT22;23278;52.110;6.050;2022-10-31T13:44:54;22.60;80.00
37412;DHT22;23278;52.110;6.050;2022-10-31T13:46:53;22.40;80.20
37412;DHT22;23278;52.110;6.050;2022-10-31T13:52:16;22.00;81.10
37412;DHT22;23278;52.110;6.050;2022-10-31T13:54:49;21.90;81.60
37412;DHT22;23278;52.110;6.050;2022-10-31T14:00:05;21.60;82.30
37412;DHT22;23278;52.110;6.050;2022-10-31T14:02:46;21.50;82.60
37412;DHT22;23278;52.110;6.050;2022-10-31T14:05:26;21.30;83.10
37412;DHT22;23278;52.110;6.050;2022-10-31T14:07:57;21.30;83.60
37412;DHT22;23278;52.110;6.050;2022-10-31T14:10:27;21.20;84.00
37412;DHT22;23278;52.110;6.050;2022-10-31T14:13:07;21.10;84.20
37412;DHT22;23278;52.110;6.050;2022-10-31T14:15:34;21.10;84.50
37412;DHT22;23278;52.110;6.050;2022-10-31T14:18:05;21.00;84.90
37412;DHT22;23278;52.110;6.050;2022-10-31T14:20:42;20.90;85.40
37412;DHT22;23278;52.110;6.050;2022-10-31T14:25:38;20.60;86.40
37412;DHT22;23278;52.110;6.050;2022-10-31T14:28:37;20.60;86.70
37412;DHT22;23278;52.110;6.050;2022-10-31T14:34:23;20.40;87.60
37412;DHT22;23278;52.110;6.050;2022-10-31T14:39:26;20.30;88.60
37412;DHT22;23278;52.110;6.050;2022-10-31T14:45:27;20.10;89.40
37412;DHT22;23278;52.110;6.050;2022-10-31T14:50:48;19.90;90.10
37412;DHT22;23278;52.110;6.050;2022-10-31T14:53:26;19.70;90.40
37412;DHT22;23278;52.110;6.050;2022-10-31T14:55:55;19.60;90.70
37412;DHT22;23278;52.110;6.050;2022-10-31T14:58:26;19.50;90.90
37412;DHT22;23278;52.110;6.050;2022-10-31T15:00:56;19.40;91.00
37412;DHT22;23278;52.110;6.050;2022-10-31T15:03:34;19.30;91.10
37412;DHT22;23278;52.110;6.050;2022-10-31T15:06:05;19.30;91.20
37412;DHT22;23278;52.110;6.050;2022-10-31T15:08:40;19.30;91.40
37412;DHT22;23278;52.110;6.050;2022-10-31T15:11:16;19.20;91.60
37412;DHT22;23278;52.110;6.050;2022-10-31T15:13:53;19.10;91.70
37412;DHT22;23278;52.110;6.050;2022-10-31T15:16:22;19.10;91.90
37412;DHT22;23278;52.110;6.050;2022-10-31T15:18:56;19.00;92.10
37412;DHT22;23278;52.110;6.050;2022-10-31T15:21:24;18.90;92.20
37412;DHT22;23278;52.110;6.050;2022-10-31T15:23:52;18.90;92.30
37412;DHT22;23278;52.110;6.050;2022-10-31T15:26:21;18.80;92.50
37412;DHT22;23278;52.110;6.050;2022-10-31T15:29:19;18.70;92.70
37412;DHT22;23278;52.110;6.050;2022-10-31T15:34:39;18.50;93.10
37412;DHT22;23278;52.110;6.050;2022-10-31T15:37:14;18.50;93.30
37412;DHT22;23278;52.110;6.050;2022-10-31T15:39:41;18.40;93.40
37412;DHT22;23278;52.110;6.050;2022-10-31T15:42:27;18.40;93.60
37412;DHT22;23278;52.110;6.050;2022-10-31T15:45:01;18.20;93.70
37412;DHT22;23278;52.110;6.050;2022-10-31T15:47:30;18.30;94.00
37412;DHT22;23278;52.110;6.050;2022-10-31T15:49:59;18.20;94.20
37412;DHT22;23278;52.110;6.050;2022-10-31T15:55:18;18.10;94.40
37412;DHT22;23278;52.110;6.050;2022-10-31T15:57:47;18.00;94.60
37412;DHT22;23278;52.110;6.050;2022-10-31T16:05:45;17.90;95.20
37412;DHT22;23278;52.110;6.050;2022-10-31T16:08:22;17.80;95.30
37412;DHT22;23278;52.110;6.050;2022-10-31T16:10:49;17.80;95.50
37412;DHT22;23278;52.110;6.050;2022-10-31T16:13:15;17.70;95.50
37412;DHT22;23278;52.110;6.050;2022-10-31T16:15:54;17.60;95.80
37412;DHT22;23278;52.110;6.050;2022-10-31T16:18:21;17.60;96.00
37412;DHT22;23278;52.110;6.050;2022-10-31T16:20:52;17.50;96.20
37412;DHT22;23278;52.110;6.050;2022-10-31T16:23:20;17.50;96.50
37412;DHT22;23278;52.110;6.050;2022-10-31T16:25:47;17.40;96.60
37412;DHT22;23278;52.110;6.050;2022-10-31T16:28:17;17.40;96.70
37412;DHT22;23278;52.110;6.050;2022-10-31T16:30:45;17.30;96.80
37412;DHT22;23278;52.110;6.050;2022-10-31T16:33:31;17.30;97.00
37412;DHT22;23278;52.110;6.050;2022-10-31T16:38:54;17.20;97.40
37412;DHT22;23278;52.110;6.050;2022-10-31T16:41:21;17.20;97.50
37412;DHT22;23278;52.110;6.050;2022-10-31T16:43:47;17.10;97.60
37412;DHT22;23278;52.110;6.050;2022-10-31T16:46:15;17.10;98.00
37412;DHT22;23278;52.110;6.050;2022-10-31T16:48:41;17.10;98.10
37412;DHT22;23278;52.110;6.050;2022-10-31T16:51:07;17.00;98.10
37412;DHT22;23278;52.110;6.050;2022-10-31T16:53:33;17.00;98.20
37412;DHT22;23278;52.110;6.050;2022-10-31T16:56:01;17.00;98.30
37412;DHT22;23278;52.110;6.050;2022-10-31T16:58:29;16.90;98.30
37412;DHT22;23278;52.110;6.050;2022-10-31T17:01:00;16.90;98.30
37412;DHT22;23278;52.110;6.050;2022-10-31T17:03:26;16.90;98.40
37412;DHT22;23278;52.110;6.050;2022-10-31T17:05:53;16.90;98.50
37412;DHT22;23278;52.110;6.050;2022-10-31T17:08:21;16.80;98.60
37412;DHT22;23278;52.110;6.050;2022-10-31T17:10:51;16.70;98.80
37412;DHT22;23278;52.110;6.050;2022-10-31T17:13:23;16.60;98.90
37412;DHT22;23278;52.110;6.050;2022-10-31T17:15:52;16.40;99.10
37412;DHT22;23278;52.110;6.050;2022-10-31T17:18:19;16.30;99.30
37412;DHT22;23278;52.110;6.050;2022-10-31T17:20:46;16.30;99.40
37412;DHT22;23278;52.110;6.050;2022-10-31T17:23:14;16.20;99.60
37412;DHT22;23278;52.110;6.050;2022-10-31T17:25:40;16.10;99.70
37412;DHT22;23278;52.110;6.050;2022-10-31T17:28:07;16.00;99.80
37412;DHT22;23278;52.110;6.050;2022-10-31T17:30:36;16.00;99.80
37412;DHT22;23278;52.110;6.050;2022-10-31T17:33:03;16.10;99.90
37412;DHT22;23278;52.110;6.050;2022-10-31T17:35:28;16.10;99.80
37412;DHT22;23278;52.110;6.050;2022-10-31T17:37:54;16.10;99.90
37412;DHT22;23278;52.110;6.050;2022-10-31T17:40:21;16.00;99.90
37412;DHT22;23278;52.110;6.050;2022-10-31T17:42:50;15.90;99.90
37412;DHT22;23278;52.110;6.050;2022-10-31T17:45:18;15.80;99.90
37412;DHT22;23278;52.110;6.050;2022-10-31T17:47:49;15.80;99.90
37412;DHT22;23278;52.110;6.050;2022-10-31T17:50:20;15.70;99.90
37412;DHT22;23278;52.110;6.050;2022-10-31T17:52:47;15.70;99.90
37412;DHT22;23278;52.110;6.050;2022-10-31T17:55:14;15.70;99.90
37412;DHT22;23278;52.110;6.050;2022-10-31T17:57:40;15.70;99.90
37412;DHT22;23278;52.110;6.050;2022-10-31T18:00:10;15.70;99.90
37412;DHT22;23278;52.110;6.050;2022-10-31T18:02:37;15.70;99.90
37412;DHT22;23278;52.110;6.050;2022-10-31T18:05:04;15.70;99.90
37412;DHT22;23278;52.110;6.050;2022-10-31T18:07:31;15.70;99.90
37412;DHT22;23278;52.110;6.050;2022-10-31T18:09:58;15.60;99.90
37412;DHT22;23278;52.110;6.050;2022-10-31T18:12:24;15.60;99.90
37412;DHT22;23278;52.110;6.050;2022-10-31T18:14:51;15.50;99.90
37412;DHT22;23278;52.110;6.050;2022-10-31T18:17:17;15.40;99.90
37412;DHT22;23278;52.110;6.050;2022-10-31T18:19:43;15.30;99.90
37412;DHT22;23278;52.110;6.050;2022-10-31T18:22:11;15.30;99.90
37412;DHT22;23278;52.110;6.050;2022-10-31T18:24:37;15.20;99.90
37412;DHT22;23278;52.110;6.050;2022-10-31T18:27:04;15.20;99.90